createdAt,value
2022-10-08T00:01:42.936Z,6.17
2022-10-08T00:04:12.453Z,6.93
2022-10-08T00:06:40.906Z,7.70
2022-10-08T00:09:10.359Z,6.80
2022-10-08T00:11:41.043Z,8.03
2022-10-08T00:14:09.834Z,6.27
2022-10-08T00:16:39.399Z,8.67
2022-10-08T00:19:09.593Z,9.47
2022-10-08T00:21:39.766Z,6.90
2022-10-08T00:24:13.379Z,8.97
2022-10-08T00:26:44.100Z,6.20
2022-10-08T00:29:14.939Z,5.97
2022-10-08T00:31:46.072Z,5.93
2022-10-08T00:34:20.587Z,4.83
2022-10-08T00:36:52.296Z,10.33
2022-10-08T00:39:23.348Z,6.67
2022-10-08T00:41:53.984Z,6.27
2022-10-08T00:44:54.173Z,7.37
2022-10-08T00:47:32.235Z,9.13
2022-10-08T00:50:03.167Z,7.97
2022-10-08T00:52:35.966Z,9.27
2022-10-08T00:55:07.759Z,5.83
2022-10-08T00:57:37.036Z,3.47
2022-10-08T01:00:07.151Z,8.53
2022-10-08T01:02:35.218Z,7.23
2022-10-08T01:05:05.258Z,7.00
2022-10-08T01:07:40.472Z,5.50
2022-10-08T01:10:18.078Z,5.90
2022-10-08T01:12:56.517Z,5.77
2022-10-08T01:15:32.317Z,11.03
2022-10-08T01:18:11.511Z,8.07
2022-10-08T01:20:45.307Z,8.77
2022-10-08T01:23:37.919Z,6.77
2022-10-08T01:26:32.946Z,10.47
2022-10-08T01:29:06.744Z,7.87
2022-10-08T01:31:38.741Z,8.87
2022-10-08T01:34:10.942Z,12.20
2022-10-08T01:36:46.104Z,6.10
2022-10-08T01:39:18.906Z,9.73
2022-10-08T01:41:52.416Z,7.10
2022-10-08T01:44:27.996Z,6.90
2022-10-08T01:46:59.304Z,8.07
2022-10-08T01:49:33.084Z,11.73
2022-10-08T01:52:05.344Z,8.00
2022-10-08T01:54:35.397Z,8.67
2022-10-08T01:57:06.295Z,5.27
2022-10-08T01:59:41.229Z,7.67
2022-10-08T02:02:16.025Z,11.40
2022-10-08T02:04:44.244Z,8.07
2022-10-08T02:07:19.158Z,7.90
2022-10-08T02:09:51.459Z,9.47
2022-10-08T02:12:20.236Z,6.93
2022-10-08T02:14:52.664Z,9.27
2022-10-08T02:17:29.579Z,7.30
2022-10-08T02:20:01.223Z,9.43
2022-10-08T02:22:35.817Z,7.17
2022-10-08T02:25:12.565Z,9.93
2022-10-08T02:27:52.141Z,9.90
2022-10-08T02:30:23.751Z,6.33
2022-10-08T02:32:56.154Z,6.50
2022-10-08T02:35:27.746Z,11.73
2022-10-08T02:38:01.168Z,7.17
2022-10-08T02:40:31.641Z,10.27
2022-10-08T02:43:04.572Z,7.07
2022-10-08T02:45:39.104Z,6.77
2022-10-08T02:48:12.494Z,12.07
2022-10-08T02:50:43.530Z,8.10
2022-10-08T02:53:14.600Z,6.53
2022-10-08T02:55:51.651Z,6.93
2022-10-08T02:58:20.105Z,12.67
2022-10-08T03:06:12.747Z,10.00
2022-10-08T03:08:46.198Z,7.43
2022-10-08T03:11:15.095Z,8.33
2022-10-08T03:13:46.911Z,10.97
2022-10-08T03:16:19.467Z,10.10
2022-10-08T03:18:47.887Z,8.33
2022-10-08T03:21:17.641Z,9.80
2022-10-08T03:23:45.855Z,11.77
2022-10-08T03:26:13.980Z,14.07
2022-10-08T03:44:08.876Z,10.67
2022-10-08T03:46:36.992Z,8.53
2022-10-08T03:49:05.430Z,10.50
2022-10-08T03:51:33.733Z,9.37
2022-10-08T03:54:01.802Z,12.30
2022-10-08T03:56:29.912Z,9.93
2022-10-08T03:58:59.912Z,10.93
2022-10-08T04:01:30.574Z,9.83
2022-10-08T04:03:58.685Z,12.07
2022-10-08T04:06:26.767Z,7.93
2022-10-08T04:09:00.808Z,11.63
2022-10-08T04:11:29.957Z,9.90
2022-10-08T04:13:58.063Z,12.57
2022-10-08T04:16:26.125Z,10.03
2022-10-08T04:18:55.600Z,11.37
2022-10-08T04:21:23.616Z,8.70
2022-10-08T04:23:51.722Z,10.90
2022-10-08T04:26:20.018Z,9.60
2022-10-08T04:28:48.755Z,8.10
2022-10-08T04:31:19.374Z,7.70
2022-10-08T04:33:48.331Z,9.83
2022-10-08T04:36:19.418Z,10.97
2022-10-08T04:38:48.035Z,6.83
2022-10-08T04:41:17.613Z,9.40
2022-10-08T04:43:47.037Z,7.10
2022-10-08T04:46:18.251Z,7.37
2022-10-08T04:48:48.951Z,6.57
2022-10-08T04:51:19.248Z,9.27
2022-10-08T04:53:47.760Z,6.53
2022-10-08T04:56:17.957Z,7.00
2022-10-08T04:58:46.359Z,5.57
2022-10-08T05:01:17.012Z,8.47
2022-10-08T05:04:19.271Z,10.73
2022-10-08T05:06:48.771Z,7.47
2022-10-08T05:09:16.818Z,4.97
2022-10-08T05:11:44.911Z,8.97
2022-10-08T05:14:13.015Z,8.20
2022-10-08T05:16:41.100Z,9.53
2022-10-08T05:19:09.224Z,9.37
2022-10-08T05:21:37.618Z,11.80
2022-10-08T05:24:09.221Z,11.30
2022-10-08T05:26:58.419Z,11.13
2022-10-08T05:29:28.521Z,10.97
2022-10-08T05:31:56.628Z,12.37
2022-10-08T05:34:24.972Z,11.73
2022-10-08T05:36:53.317Z,14.50
2022-10-08T05:39:24.410Z,13.50
2022-10-08T05:41:53.364Z,14.20
2022-10-08T05:44:21.682Z,12.43
2022-10-08T05:46:49.966Z,9.80
2022-10-08T05:49:20.445Z,15.50
2022-10-08T05:51:48.648Z,14.77
2022-10-08T05:54:17.108Z,14.40
2022-10-08T05:56:46.843Z,13.30
2022-10-08T05:59:18.727Z,14.93
2022-10-08T06:01:46.974Z,16.50
2022-10-08T06:04:15.252Z,13.20
2022-10-08T06:06:44.398Z,15.57
2022-10-08T06:09:14.944Z,14.50
2022-10-08T06:11:43.535Z,14.00
2022-10-08T06:14:14.397Z,16.50
2022-10-08T06:16:42.538Z,20.67
2022-10-08T06:19:10.891Z,17.10
2022-10-08T06:21:39.163Z,19.83
2022-10-08T06:24:09.302Z,16.13
2022-10-08T06:26:38.624Z,16.70
2022-10-08T06:29:07.020Z,18.57
2022-10-08T06:31:37.186Z,17.83
2022-10-08T06:34:06.070Z,17.17
2022-10-08T06:36:36.825Z,17.50
2022-10-08T06:39:07.339Z,21.30
2022-10-08T06:41:35.840Z,16.70
2022-10-08T06:44:05.218Z,16.60
2022-10-08T06:46:33.935Z,20.13
2022-10-08T06:49:05.984Z,17.27
2022-10-08T06:51:34.461Z,15.50
2022-10-08T06:54:07.436Z,13.00
2022-10-08T06:56:37.093Z,14.63
2022-10-08T06:59:05.755Z,12.93
2022-10-08T07:01:35.187Z,8.70
2022-10-08T07:04:07.130Z,8.07
2022-10-08T07:06:35.523Z,11.77
2022-10-08T07:09:04.869Z,9.27
2022-10-08T07:11:33.666Z,9.85
2022-10-08T07:14:01.982Z,7.68
2022-10-08T07:16:30.243Z,11.93
2022-10-08T07:18:59.395Z,8.48
2022-10-08T07:21:30.289Z,7.13
2022-10-08T07:24:00.198Z,8.13
2022-10-08T07:26:30.606Z,7.90
2022-10-08T07:29:00.283Z,7.05
2022-10-08T07:31:31.367Z,7.43
2022-10-08T07:33:59.936Z,6.15
2022-10-08T07:36:30.456Z,6.63
2022-10-08T07:38:59.940Z,10.52
2022-10-08T07:41:29.089Z,4.60
2022-10-08T07:43:59.775Z,7.20
2022-10-08T07:46:28.720Z,5.82
2022-10-08T07:48:59.228Z,7.90
2022-10-08T07:51:29.742Z,5.47
2022-10-08T07:54:02.335Z,3.70
2022-10-08T07:56:32.713Z,6.40
2022-10-08T07:59:01.448Z,5.50
2022-10-08T08:01:30.834Z,6.47
2022-10-08T08:04:02.093Z,4.82
2022-10-08T08:06:33.077Z,3.55
2022-10-08T08:09:02.338Z,4.28
2022-10-08T08:11:31.215Z,5.40
2022-10-08T08:13:59.218Z,5.97
2022-10-08T08:16:29.350Z,11.85
2022-10-08T08:18:59.327Z,7.00
2022-10-08T08:21:29.499Z,20.08
2022-10-08T08:24:00.608Z,5.70
2022-10-08T08:26:32.927Z,4.32
2022-10-08T08:29:03.094Z,7.07
2022-10-08T08:31:32.615Z,3.38
2022-10-08T08:34:02.970Z,4.97
2022-10-08T08:36:34.102Z,5.68
2022-10-08T08:39:04.920Z,4.55
2022-10-08T08:41:50.580Z,4.95
2022-10-08T08:44:23.158Z,5.25
2022-10-08T08:46:56.036Z,4.93
2022-10-08T08:49:30.327Z,4.13
2022-10-08T08:51:59.670Z,4.40
2022-10-08T08:54:29.269Z,3.35
2022-10-08T08:57:03.197Z,4.90
2022-10-08T08:59:38.974Z,2.72
2022-10-08T09:02:19.275Z,2.60
2022-10-08T09:04:52.080Z,2.55
2022-10-08T09:07:25.067Z,4.28
2022-10-08T09:09:58.195Z,4.40
2022-10-08T09:12:34.449Z,3.08
2022-10-08T09:15:04.141Z,3.53
2022-10-08T09:17:34.564Z,5.82
2022-10-08T09:20:02.848Z,2.33
2022-10-08T09:22:36.404Z,4.13
2022-10-08T09:25:08.333Z,3.83
2022-10-08T09:27:55.108Z,5.43
2022-10-08T09:30:32.800Z,3.58
2022-10-08T09:33:03.202Z,2.00
2022-10-08T09:35:33.819Z,2.55
2022-10-08T09:38:05.840Z,2.45
2022-10-08T09:40:35.694Z,2.17
2022-10-08T09:43:15.839Z,2.33
2022-10-08T09:45:46.380Z,1.85
2022-10-08T09:48:21.240Z,3.75
2022-10-08T09:51:02.202Z,3.33
2022-10-08T09:53:35.777Z,5.68
2022-10-08T09:56:07.637Z,7.18
2022-10-08T09:58:39.532Z,3.63
2022-10-08T10:01:14.960Z,3.95
2022-10-08T10:03:50.782Z,2.97
2022-10-08T10:06:29.918Z,5.22
2022-10-08T10:09:03.240Z,4.95
2022-10-08T10:11:39.721Z,3.00
2022-10-08T10:14:15.849Z,3.93
2022-10-08T10:16:47.027Z,3.17
2022-10-08T10:19:19.896Z,2.57
2022-10-08T10:21:53.357Z,3.20
2022-10-08T10:24:34.341Z,2.33
2022-10-08T10:27:09.996Z,3.33
2022-10-08T10:29:51.056Z,2.97
2022-10-08T10:32:23.736Z,4.80
2022-10-08T10:35:01.740Z,3.47
2022-10-08T10:37:39.881Z,3.80
2022-10-08T10:40:30.563Z,9.57
2022-10-08T10:43:13.803Z,3.87
2022-10-08T10:45:46.341Z,3.57
2022-10-08T10:48:15.643Z,3.70
2022-10-08T10:50:54.931Z,3.13
2022-10-08T10:53:31.739Z,2.93
2022-10-08T10:56:09.900Z,3.77
2022-10-08T10:59:04.544Z,3.30
2022-10-08T11:01:41.473Z,4.43
2022-10-08T11:04:17.893Z,3.47
2022-10-08T11:07:04.019Z,2.63
2022-10-08T11:09:42.083Z,4.00
2022-10-08T11:12:22.556Z,2.53
2022-10-08T11:15:02.444Z,2.40
2022-10-08T11:17:57.674Z,2.60
2022-10-08T11:20:38.080Z,3.90
2022-10-08T11:23:18.141Z,1.80
2022-10-08T11:26:17.571Z,4.30
2022-10-08T11:28:50.017Z,2.10
2022-10-08T11:31:27.211Z,3.40
2022-10-08T11:33:57.503Z,3.50
2022-10-08T11:36:34.685Z,3.53
2022-10-08T11:39:13.081Z,5.63
2022-10-08T11:41:49.096Z,2.23
2022-10-08T11:44:18.575Z,2.60
2022-10-08T11:46:48.266Z,3.13
2022-10-08T11:49:53.419Z,4.90
2022-10-08T11:52:21.582Z,2.13
2022-10-08T11:54:55.907Z,4.43
2022-10-08T11:57:49.265Z,3.50
2022-10-08T12:00:35.600Z,4.70
2022-10-08T12:03:07.340Z,4.73
2022-10-08T12:05:49.440Z,3.80
2022-10-08T12:08:49.623Z,2.73
2022-10-08T12:11:49.985Z,6.80
2022-10-08T12:14:47.345Z,3.87
2022-10-08T12:17:16.302Z,4.27
2022-10-08T12:20:18.185Z,4.43
2022-10-08T12:23:03.159Z,3.60
2022-10-08T12:25:35.353Z,1.93
2022-10-08T12:28:42.901Z,2.67
2022-10-08T12:31:26.857Z,1.90
2022-10-08T12:34:14.169Z,7.37
2022-10-08T12:36:49.607Z,4.10
2022-10-08T12:39:27.750Z,3.67
2022-10-08T12:42:09.376Z,2.27
2022-10-08T12:44:50.821Z,2.63
2022-10-08T12:47:29.156Z,3.17
2022-10-08T12:50:04.951Z,2.78
2022-10-08T12:52:39.528Z,3.67
2022-10-08T12:55:16.928Z,2.37
2022-10-08T12:57:48.050Z,5.77
2022-10-08T13:00:24.379Z,3.30
2022-10-08T13:03:03.468Z,3.73
2022-10-08T13:05:33.969Z,3.83
2022-10-08T13:08:32.884Z,2.00
2022-10-08T13:11:03.632Z,6.93
2022-10-08T13:13:42.870Z,5.10
2022-10-08T13:16:13.379Z,5.47
2022-10-08T13:18:43.418Z,3.73
2022-10-08T13:21:35.667Z,3.97
2022-10-08T13:24:21.776Z,6.67
2022-10-08T13:26:52.273Z,5.70
2022-10-08T13:29:33.815Z,3.97
2022-10-08T13:32:14.680Z,6.93
2022-10-08T13:34:45.661Z,5.97
2022-10-08T13:37:21.435Z,4.40
2022-10-08T13:39:54.797Z,2.03
2022-10-08T13:42:25.864Z,3.73
2022-10-08T13:44:54.262Z,3.40
2022-10-08T13:47:23.435Z,3.13
2022-10-08T13:49:51.802Z,1.43
2022-10-08T13:52:22.477Z,3.27
2022-10-08T13:54:53.601Z,3.63
2022-10-08T13:57:21.637Z,2.23
2022-10-08T13:59:49.665Z,3.83
2022-10-08T14:02:18.120Z,2.27
2022-10-08T14:04:46.229Z,1.67
2022-10-08T14:07:21.176Z,6.10
2022-10-08T14:09:49.559Z,5.13
2022-10-08T14:12:26.397Z,2.57
2022-10-08T14:14:54.895Z,2.20
2022-10-08T14:17:23.283Z,3.93
2022-10-08T14:19:51.664Z,3.67
2022-10-08T14:22:20.047Z,2.97
2022-10-08T14:24:48.233Z,2.57
2022-10-08T14:27:16.384Z,3.53
2022-10-08T14:29:45.902Z,3.93
2022-10-08T14:32:14.004Z,1.67
2022-10-08T14:34:42.070Z,2.90
2022-10-08T14:37:11.551Z,1.03
2022-10-08T14:39:39.606Z,1.80
2022-10-08T14:42:07.722Z,1.03
2022-10-08T14:44:35.896Z,3.93
2022-10-08T14:47:05.347Z,4.50
2022-10-08T14:49:33.446Z,2.30
2022-10-08T14:52:01.531Z,4.03
2022-10-08T14:54:29.679Z,3.50
2022-10-08T14:56:57.815Z,3.07
2022-10-08T14:59:26.117Z,2.57
2022-10-08T15:01:55.052Z,1.90
2022-10-08T15:04:24.600Z,4.07
2022-10-08T15:06:52.662Z,6.87
2022-10-08T15:09:20.747Z,3.73
2022-10-08T15:11:49.128Z,6.37
2022-10-08T15:14:18.670Z,3.00
2022-10-08T15:16:46.763Z,3.23
2022-10-08T15:19:16.923Z,2.93
2022-10-08T15:21:49.256Z,2.23
2022-10-08T15:24:17.353Z,3.20
2022-10-08T15:26:45.438Z,3.63
2022-10-08T15:29:13.562Z,2.53
2022-10-08T15:31:41.776Z,2.80
2022-10-08T15:34:17.424Z,4.17
2022-10-08T15:36:45.724Z,3.67
2022-10-08T15:39:17.330Z,2.33
2022-10-08T15:41:47.684Z,4.30
2022-10-08T15:44:18.702Z,4.57
2022-10-08T15:46:47.372Z,2.60
2022-10-08T15:49:15.872Z,3.27
2022-10-08T15:51:44.008Z,2.93
2022-10-08T15:54:12.273Z,4.97
2022-10-08T15:56:41.781Z,3.20
2022-10-08T15:59:09.890Z,4.80
2022-10-08T16:01:38.048Z,7.53
2022-10-08T16:04:06.183Z,4.10
2022-10-08T16:06:36.577Z,3.40
2022-10-08T16:09:05.957Z,1.60
2022-10-08T16:11:35.341Z,3.90
2022-10-08T16:14:08.434Z,2.33
2022-10-08T16:16:36.997Z,4.60
2022-10-08T16:19:08.228Z,3.97
2022-10-08T16:21:37.310Z,2.70
2022-10-08T16:24:06.546Z,5.17
2022-10-08T16:26:35.632Z,4.00
2022-10-08T16:29:08.180Z,4.83
2022-10-08T16:31:38.272Z,3.60
2022-10-08T16:34:08.058Z,5.77
2022-10-08T16:36:37.513Z,4.03
2022-10-08T16:39:06.248Z,2.70
2022-10-08T16:41:35.849Z,2.50
2022-10-08T16:44:11.994Z,5.73
2022-10-08T16:46:42.314Z,4.47
2022-10-08T16:49:19.564Z,5.03
2022-10-08T16:51:51.504Z,2.73
2022-10-08T16:54:19.801Z,3.27
2022-10-08T16:56:48.174Z,3.40
2022-10-08T16:59:20.188Z,4.13
2022-10-08T17:01:50.645Z,4.70
2022-10-08T17:04:20.379Z,8.00
2022-10-08T17:06:48.840Z,1.97
2022-10-08T17:09:16.933Z,3.97
2022-10-08T17:11:45.022Z,3.63
2022-10-08T17:14:13.631Z,1.83
2022-10-08T17:16:45.075Z,3.80
2022-10-08T17:19:13.714Z,3.57
2022-10-08T17:21:42.393Z,3.53
2022-10-08T17:24:12.779Z,1.87
2022-10-08T17:26:41.842Z,3.97
2022-10-08T17:29:11.422Z,7.00
2022-10-08T17:31:40.031Z,7.13
2022-10-08T17:34:10.652Z,2.37
2022-10-08T17:36:40.918Z,5.07
2022-10-08T17:39:12.272Z,4.17
2022-10-08T17:41:41.952Z,5.10
2022-10-08T17:44:12.102Z,4.20
2022-10-08T17:46:42.768Z,5.57
2022-10-08T17:49:12.720Z,5.57
2022-10-08T17:51:40.858Z,4.87
2022-10-08T17:54:12.915Z,2.90
2022-10-08T17:56:41.026Z,3.53
2022-10-08T17:59:09.603Z,9.00
2022-10-08T18:01:41.437Z,4.93
2022-10-08T18:04:16.668Z,5.33
2022-10-08T18:06:47.081Z,5.27
2022-10-08T18:09:18.417Z,4.63
2022-10-08T18:11:48.408Z,6.00
2022-10-08T18:14:17.464Z,6.63
2022-10-08T18:16:48.082Z,5.43
2022-10-08T18:19:18.615Z,4.93
2022-10-08T18:21:46.735Z,7.63
2022-10-08T18:24:15.126Z,6.97
2022-10-08T18:26:43.275Z,9.47
2022-10-08T18:29:13.384Z,5.37
2022-10-08T18:31:43.206Z,11.33
2022-10-08T18:34:14.368Z,6.27
2022-10-08T18:36:44.123Z,7.90
2022-10-08T18:39:13.991Z,6.83
2022-10-08T18:41:43.174Z,5.97
2022-10-08T18:44:14.127Z,7.80
2022-10-08T18:46:42.574Z,6.13
2022-10-08T18:49:14.245Z,6.13
2022-10-08T18:51:43.908Z,7.37
2022-10-08T18:54:13.058Z,8.50
2022-10-08T18:56:41.571Z,13.33
2022-10-08T18:59:13.119Z,8.40
2022-10-08T19:01:43.325Z,8.43
2022-10-08T19:04:14.598Z,7.37
2022-10-08T19:06:46.791Z,7.30
2022-10-08T19:09:15.455Z,4.57
2022-10-08T19:11:45.413Z,6.93
2022-10-08T19:14:15.708Z,8.10
2022-10-08T19:16:44.280Z,6.83
2022-10-08T19:19:15.789Z,7.33
2022-10-08T19:21:45.786Z,7.17
2022-10-08T19:24:16.108Z,4.00
2022-10-08T19:26:44.639Z,7.00
2022-10-08T19:29:16.791Z,6.60
2022-10-08T19:31:47.452Z,5.47
2022-10-08T19:34:17.415Z,6.13
2022-10-08T19:36:46.927Z,3.33
2022-10-08T19:39:16.505Z,5.43
2022-10-08T19:41:45.802Z,4.93
2022-10-08T19:44:14.452Z,8.70
2022-10-08T19:46:42.590Z,13.70
2022-10-08T19:49:11.872Z,8.00
2022-10-08T19:51:39.942Z,7.93
2022-10-08T19:54:09.510Z,11.10
2022-10-08T19:56:37.659Z,7.70
2022-10-08T19:59:06.371Z,9.33
2022-10-08T20:01:36.385Z,5.83
2022-10-08T20:04:06.313Z,9.27
2022-10-08T20:06:38.692Z,6.40
2022-10-08T20:09:11.898Z,6.50
2022-10-08T20:11:40.661Z,12.50
2022-10-08T20:14:08.752Z,11.10
2022-10-08T20:16:39.368Z,7.17
2022-10-08T20:19:09.396Z,6.17
2022-10-08T20:21:38.761Z,4.50
2022-10-08T20:24:07.801Z,8.73
2022-10-08T20:26:38.829Z,8.70
2022-10-08T20:29:08.903Z,8.50
2022-10-08T20:31:38.616Z,12.20
2022-10-08T20:34:08.383Z,10.20
2022-10-08T20:36:36.505Z,9.63
2022-10-08T20:39:04.970Z,9.50
2022-10-08T20:41:33.326Z,8.90
2022-10-08T20:44:04.047Z,10.97
2022-10-08T20:46:32.962Z,5.43
2022-10-08T20:49:01.687Z,7.87
2022-10-08T20:51:31.432Z,13.83
2022-10-08T20:54:01.852Z,12.00
2022-10-08T20:56:34.696Z,8.37
2022-10-08T20:59:07.624Z,7.90
2022-10-08T21:01:37.838Z,6.97
2022-10-08T21:04:06.842Z,9.10
2022-10-08T21:06:39.028Z,7.40
2022-10-08T21:09:09.056Z,8.83
2022-10-08T21:23:12.070Z,9.50
2022-10-08T21:25:40.086Z,14.30
2022-10-08T21:28:08.203Z,6.83
2022-10-08T21:30:36.467Z,7.83
2022-10-08T21:33:04.556Z,7.93
2022-10-08T21:35:32.564Z,11.50
2022-10-08T21:38:00.644Z,8.27
2022-10-08T21:40:30.178Z,9.73
2022-10-08T21:42:58.279Z,7.63
2022-10-08T21:45:26.399Z,8.37
2022-10-08T21:47:55.723Z,8.93
2022-10-08T21:50:23.843Z,10.33
2022-10-08T21:52:51.915Z,11.07
2022-10-08T21:55:19.918Z,8.47
2022-10-08T21:57:49.447Z,8.80
2022-10-08T22:00:17.622Z,7.40
2022-10-08T22:02:46.108Z,8.93
2022-10-08T22:05:14.459Z,10.13
2022-10-08T22:07:42.627Z,6.40
2022-10-08T22:10:10.684Z,9.80
2022-10-08T22:12:38.750Z,7.87
2022-10-08T22:15:09.159Z,6.03
2022-10-08T22:17:37.197Z,10.30
2022-10-08T22:20:06.166Z,7.77
2022-10-08T22:22:36.070Z,12.97
2022-10-08T22:25:04.391Z,9.70
2022-10-08T22:27:35.151Z,8.00
2022-10-08T22:30:04.428Z,8.67
2022-10-08T22:32:34.045Z,9.80
2022-10-08T22:35:02.256Z,7.53
2022-10-08T22:37:30.350Z,6.63
2022-10-08T22:39:58.389Z,7.73
2022-10-08T22:42:26.475Z,8.43
2022-10-08T22:44:54.542Z,9.37
2022-10-08T22:47:22.558Z,9.77
2022-10-08T22:49:51.982Z,6.83
2022-10-08T22:52:20.021Z,12.60
2022-10-08T22:54:48.089Z,7.83
2022-10-08T22:57:16.172Z,7.70
2022-10-08T22:59:44.219Z,9.67
2022-10-08T23:02:12.401Z,9.93
2022-10-08T23:04:41.020Z,9.90
2022-10-08T23:08:06.641Z,7.43
2022-10-08T23:10:36.287Z,9.17
2022-10-08T23:13:04.398Z,9.50
2022-10-08T23:15:32.537Z,10.67
2022-10-08T23:18:00.701Z,6.27
2022-10-08T23:20:28.891Z,9.70
2022-10-08T23:22:57.175Z,8.33
2022-10-08T23:25:27.831Z,8.93
2022-10-08T23:27:57.298Z,11.03
2022-10-08T23:30:42.225Z,8.83
2022-10-08T23:33:11.436Z,9.00
2022-10-08T23:35:39.450Z,8.60
2022-10-08T23:38:07.532Z,5.97
2022-10-08T23:40:35.648Z,15.63
2022-10-08T23:43:05.303Z,10.83
2022-10-08T23:45:33.400Z,9.70
2022-10-08T23:48:01.464Z,6.73
2022-10-08T23:50:29.483Z,10.73
2022-10-08T23:52:57.571Z,8.27
2022-10-08T23:55:25.647Z,9.97
2022-10-08T23:57:53.749Z,8.23
